Huvudsida
METAR-TAF:

METAR-TAF

Flygplatser :

Svolværs flygplats. Helle

Svolvær, Norge

latitud: 68-15N, longitud: 014-40E, höjd: 0 m

Aktuellt väderrapport

Denna rapport gjordes för 42 minuter sedan, klockan 21:20 UTC
Vind 16 kt från ost/nordost
Temperatur -3°C
Fuktighet 58%
Tryck 1005 hPa
Sikt 10 km eller mer
Inga moln under 1 500 m eller inga cumulonimbus

METAR: ENSH 262120Z 07016KT CAVOK M03/M10 Q1005 RMK WIND 150FT 05030G41KT

Tid: 23:02 (22:02 UTC)

Väderprognos

Denna rapport gjordes för 5 timmar och 2 minuter sedan, klockan 17:00 UTC
Prognos gäller från 26 kl. 18 UTC till 26 kl. 22 UTC
Vind 20 kt från ost/nordost
Sikt 10 km eller mer
Inga moln under 1 500 m eller inga cumulonimbus

TAF: ENSH 261700Z 2618/2622 07020KT CAVOK

Aktuella väderrapporter och prognoser från 4000 flygplatser (METAR- och TAF-rapporter).

De tillgängliga stationerna syns som gula och röda prickar på kartan.

För musen över prickarna för att se namnen på stationerna.

Klicka sedan för att få väderrapporter och prognoser.

För att ändra kartan: Klicka på de gröna knapparna med ett svart kors på för att zooma in; den gröna knappen med ett streck på för att zooma ut; eller på de gröna pilarna för angränsande kartor.


METAR-TAF: